createdAt,value
2023-05-01T00:01:39.365Z,8.43
2023-05-01T00:04:42.077Z,7.07
2023-05-01T00:07:44.808Z,8.00
2023-05-01T00:10:47.498Z,6.63
2023-05-01T00:13:50.199Z,6.15
2023-05-01T00:16:52.973Z,7.85
2023-05-01T00:19:55.843Z,8.63
2023-05-01T00:22:58.800Z,7.22
2023-05-01T00:26:01.485Z,6.38
2023-05-01T00:29:03.914Z,7.93
2023-05-01T00:32:07.297Z,6.30
2023-05-01T00:35:09.852Z,6.85
2023-05-01T00:38:12.589Z,6.63
2023-05-01T00:41:15.424Z,6.53
2023-05-01T00:44:18.165Z,6.75
2023-05-01T00:47:21.813Z,6.85
2023-05-01T00:50:24.457Z,7.47
2023-05-01T00:53:28.443Z,6.00
2023-05-01T00:56:33.909Z,8.65
2023-05-01T00:59:36.809Z,9.07
2023-05-01T01:02:39.875Z,8.13
2023-05-01T01:05:45.585Z,6.50
2023-05-01T01:09:23.355Z,7.55
2023-05-01T01:12:37.096Z,6.72
2023-05-01T01:15:46.527Z,6.03
2023-05-01T01:19:11.360Z,8.73
2023-05-01T01:22:15.831Z,8.75
2023-05-01T01:25:45.772Z,6.88
2023-05-01T01:28:54.333Z,6.65
2023-05-01T01:31:56.827Z,6.38
2023-05-01T01:35:08.132Z,7.00
2023-05-01T01:38:12.969Z,7.47
2023-05-01T01:41:20.233Z,8.23
2023-05-01T01:44:45.731Z,7.47
2023-05-01T01:47:51.964Z,7.63
2023-05-01T01:50:56.492Z,8.98
2023-05-01T01:53:59.179Z,8.27
2023-05-01T01:57:02.876Z,7.38
2023-05-01T02:00:09.234Z,8.07
2023-05-01T02:03:15.705Z,7.80
2023-05-01T02:06:19.981Z,7.47
2023-05-01T02:09:25.136Z,6.35
2023-05-01T02:12:27.876Z,8.15
2023-05-01T02:15:30.599Z,6.78
2023-05-01T02:18:33.303Z,6.55
2023-05-01T02:21:35.864Z,6.82
2023-05-01T02:24:38.609Z,8.93
2023-05-01T02:27:53.737Z,7.22
2023-05-01T02:30:57.507Z,6.57
2023-05-01T02:34:00.219Z,11.60
2023-05-01T02:37:04.670Z,7.60
2023-05-01T02:40:08.490Z,8.07
2023-05-01T02:43:14.319Z,7.75
2023-05-01T02:46:17.245Z,7.57
2023-05-01T02:49:20.043Z,8.48
2023-05-01T02:52:23.264Z,8.40
2023-05-01T02:55:34.185Z,7.40
2023-05-01T02:58:42.118Z,10.60
2023-05-01T03:01:44.696Z,10.52
2023-05-01T03:04:47.526Z,11.77
2023-05-01T03:07:51.446Z,9.85
2023-05-01T03:10:54.421Z,9.18
2023-05-01T03:13:56.921Z,9.07
2023-05-01T03:16:59.914Z,8.73
2023-05-01T03:20:02.573Z,7.72
2023-05-01T03:23:06.627Z,7.53
2023-05-01T03:26:11.919Z,9.38
2023-05-01T03:29:14.804Z,8.40
2023-05-01T03:32:18.349Z,7.00
2023-05-01T03:35:22.532Z,9.55
2023-05-01T03:38:27.385Z,8.35
2023-05-01T03:41:50.218Z,7.57
2023-05-01T03:45:01.317Z,8.30
2023-05-01T03:48:04.764Z,6.97
2023-05-01T03:51:07.808Z,8.25
2023-05-01T03:54:12.289Z,6.30
2023-05-01T03:57:44.045Z,7.13
2023-05-01T04:03:49.396Z,7.00
2023-05-01T04:06:52.817Z,8.95
2023-05-01T04:09:55.436Z,7.82
2023-05-01T04:12:58.260Z,6.97
2023-05-01T04:16:00.730Z,10.80
2023-05-01T04:19:04.021Z,7.03
2023-05-01T04:22:09.459Z,7.93
2023-05-01T04:25:12.887Z,8.68
2023-05-01T04:31:18.005Z,8.82
2023-05-01T04:34:20.652Z,8.77
2023-05-01T04:37:23.420Z,7.53
2023-05-01T04:40:26.107Z,8.48
2023-05-01T04:43:29.738Z,7.43
2023-05-01T04:46:33.637Z,8.32
2023-05-01T04:49:36.737Z,6.90
2023-05-01T04:52:39.372Z,9.20
2023-05-01T04:55:42.207Z,7.05
2023-05-01T04:58:49.644Z,8.20
2023-05-01T05:01:56.265Z,7.88
2023-05-01T05:04:59.487Z,9.00
2023-05-01T05:08:04.266Z,7.00
2023-05-01T05:11:10.988Z,7.22
2023-05-01T05:14:46.054Z,7.00
2023-05-01T05:17:49.016Z,6.05
2023-05-01T05:20:51.588Z,5.93
2023-05-01T05:23:54.455Z,8.38
2023-05-01T05:26:57.108Z,7.25
2023-05-01T05:30:00.266Z,5.75
2023-05-01T05:36:05.898Z,6.40
2023-05-01T05:39:14.881Z,5.80
2023-05-01T05:42:17.445Z,4.95
2023-05-01T05:45:20.566Z,4.10
2023-05-01T05:48:24.682Z,5.53
2023-05-01T05:54:32.043Z,5.90
2023-05-01T05:57:37.308Z,6.75
2023-05-01T06:00:42.183Z,4.80
2023-05-01T06:06:48.802Z,4.35
2023-05-01T06:09:51.840Z,5.78
2023-05-01T06:13:03.949Z,5.90
2023-05-01T06:16:18.432Z,5.80
2023-05-01T06:19:21.046Z,5.03
2023-05-01T06:22:27.727Z,5.50
2023-05-01T06:25:44.531Z,5.03
2023-05-01T06:28:50.606Z,3.67
2023-05-01T06:31:53.363Z,4.63
2023-05-01T06:34:56.092Z,5.93
2023-05-01T06:37:58.834Z,4.25
2023-05-01T06:41:01.469Z,5.60
2023-05-01T06:44:04.304Z,4.80
2023-05-01T06:47:07.329Z,6.22
2023-05-01T06:53:12.825Z,5.47
2023-05-01T06:56:16.223Z,4.70
2023-05-01T06:59:18.840Z,5.63
2023-05-01T07:02:21.383Z,4.32
2023-05-01T07:05:24.198Z,4.57
2023-05-01T07:08:28.397Z,5.18
2023-05-01T07:11:32.644Z,4.18
2023-05-01T07:14:36.067Z,5.53
2023-05-01T07:17:38.696Z,3.63
2023-05-01T07:20:41.225Z,4.82
2023-05-01T07:23:44.178Z,4.68
2023-05-01T07:29:50.886Z,3.33
2023-05-01T07:32:53.393Z,3.95
2023-05-01T07:35:56.720Z,4.40
2023-05-01T07:38:59.580Z,5.05
2023-05-01T07:45:05.408Z,5.13
2023-05-01T07:48:08.018Z,3.60
2023-05-01T07:51:10.428Z,4.68
2023-05-01T07:54:16.549Z,4.88
2023-05-01T07:57:19.076Z,4.25
2023-05-01T08:00:21.720Z,3.53
2023-05-01T08:03:24.352Z,6.38
2023-05-01T08:09:31.227Z,4.47
2023-05-01T08:12:33.733Z,5.93
2023-05-01T08:15:39.184Z,4.68
2023-05-01T08:18:41.852Z,6.50
2023-05-01T08:21:44.294Z,6.82
2023-05-01T08:24:46.860Z,4.60
2023-05-01T08:27:49.349Z,5.10
2023-05-01T08:30:53.251Z,5.45
2023-05-01T08:33:55.606Z,5.25
2023-05-01T08:36:59.343Z,4.28
2023-05-01T08:40:08.506Z,4.65
2023-05-01T08:46:13.833Z,4.03
2023-05-01T08:49:17.470Z,4.97
2023-05-01T08:52:20.595Z,5.30
2023-05-01T08:55:23.299Z,4.13
2023-05-01T08:58:26.488Z,3.88
2023-05-01T09:01:29.211Z,4.70
2023-05-01T09:07:44.277Z,4.78
2023-05-01T09:10:46.936Z,3.90
2023-05-01T09:16:51.643Z,4.43
2023-05-01T09:22:59.349Z,4.65
2023-05-01T09:26:07.426Z,4.60
2023-05-01T09:29:10.366Z,4.18
2023-05-01T09:32:28.431Z,3.78
2023-05-01T09:35:33.466Z,3.47
2023-05-01T09:38:36.076Z,3.65
2023-05-01T09:44:52.852Z,4.97
2023-05-01T09:51:33.076Z,6.65
2023-05-01T09:54:35.604Z,5.07
2023-05-01T10:00:48.636Z,5.47
2023-05-01T10:03:56.093Z,5.85
2023-05-01T10:07:13.405Z,5.88
2023-05-01T10:10:17.465Z,3.92
2023-05-01T10:13:20.380Z,5.50
2023-05-01T10:16:30.676Z,4.05
2023-05-01T10:19:33.380Z,5.10
2023-05-01T10:25:38.601Z,5.55
2023-05-01T10:28:41.619Z,3.85
2023-05-01T10:31:44.161Z,4.80
2023-05-01T10:34:52.836Z,3.42
2023-05-01T10:41:00.819Z,8.10
2023-05-01T10:44:25.848Z,4.60
2023-05-01T10:47:28.789Z,7.28
2023-05-01T10:50:31.607Z,5.18
2023-05-01T10:53:34.743Z,4.53
2023-05-01T10:56:37.256Z,6.72
2023-05-01T11:00:05.551Z,4.85
2023-05-01T11:03:22.983Z,4.63
2023-05-01T11:06:25.917Z,4.57
2023-05-01T11:09:39.334Z,5.50
2023-05-01T11:12:52.307Z,4.57
2023-05-01T11:15:54.767Z,4.57
2023-05-01T11:18:57.528Z,4.97
2023-05-01T11:22:00.854Z,5.43
2023-05-01T11:25:04.635Z,4.35
2023-05-01T11:28:07.431Z,4.53
2023-05-01T11:31:10.534Z,3.47
2023-05-01T11:34:13.646Z,3.17
2023-05-01T11:37:16.878Z,3.63
2023-05-01T11:40:23.946Z,3.63
2023-05-01T11:43:26.906Z,3.63
2023-05-01T11:46:35.253Z,4.38
2023-05-01T11:52:48.769Z,5.47
2023-05-01T11:55:52.210Z,3.40
2023-05-01T11:58:56.189Z,5.65
2023-05-01T12:01:58.669Z,3.60
2023-05-01T12:05:17.596Z,4.63
2023-05-01T12:08:21.964Z,3.58
2023-05-01T12:11:24.958Z,5.85
2023-05-01T12:14:27.391Z,4.60
2023-05-01T12:17:30.302Z,4.38
2023-05-01T12:20:40.564Z,4.05
2023-05-01T12:23:43.015Z,3.05
2023-05-01T12:26:45.930Z,3.10
2023-05-01T12:29:48.519Z,4.45
2023-05-01T12:32:51.004Z,3.33
2023-05-01T12:35:53.481Z,4.03
2023-05-01T12:38:58.823Z,4.05
2023-05-01T12:42:01.503Z,3.30
2023-05-01T12:45:04.279Z,3.17
2023-05-01T12:48:16.415Z,4.07
2023-05-01T12:51:22.218Z,3.28
2023-05-01T12:54:27.264Z,4.40
2023-05-01T12:57:30.320Z,3.00
2023-05-01T13:00:43.709Z,4.00
2023-05-01T13:03:46.289Z,3.47
2023-05-01T13:06:49.380Z,3.17
2023-05-01T13:09:58.162Z,3.58
2023-05-01T13:13:01.112Z,3.60
2023-05-01T13:16:10.563Z,3.35
2023-05-01T13:19:13.287Z,4.18
2023-05-01T13:22:15.985Z,3.35
2023-05-01T13:25:20.713Z,4.10
2023-05-01T13:28:23.714Z,3.47
2023-05-01T13:31:26.690Z,4.95
2023-05-01T13:34:33.227Z,3.38
2023-05-01T13:37:36.320Z,3.58
2023-05-01T13:40:39.299Z,4.28
2023-05-01T13:43:42.992Z,4.20
2023-05-01T13:46:47.069Z,4.20
2023-05-01T13:49:49.483Z,4.55
2023-05-01T13:52:52.113Z,3.92
2023-05-01T13:55:54.608Z,3.95
2023-05-01T13:58:57.341Z,4.18
2023-05-01T14:01:59.890Z,3.85
2023-05-01T14:05:03.368Z,3.17
2023-05-01T14:08:08.798Z,4.00
2023-05-01T14:11:11.837Z,3.97
2023-05-01T14:14:17.819Z,2.95
2023-05-01T14:17:29.014Z,5.20
2023-05-01T14:20:31.650Z,3.05
2023-05-01T14:23:35.150Z,3.78
2023-05-01T14:26:40.856Z,3.33
2023-05-01T14:29:46.984Z,3.03
2023-05-01T14:32:49.594Z,2.58
2023-05-01T14:35:53.091Z,2.83
2023-05-01T14:39:02.331Z,5.20
2023-05-01T14:42:05.246Z,3.80
2023-05-01T14:45:13.353Z,3.90
2023-05-01T14:48:26.326Z,3.42
2023-05-01T14:51:29.291Z,4.32
2023-05-01T14:54:32.467Z,4.40
2023-05-01T14:57:35.203Z,3.58
2023-05-01T15:00:37.908Z,15.35
2023-05-01T15:03:44.025Z,11.23
2023-05-01T15:06:46.828Z,7.95
2023-05-01T15:09:49.445Z,4.32
2023-05-01T15:12:52.330Z,4.60
2023-05-01T15:15:55.301Z,5.95
2023-05-01T15:18:58.714Z,4.85
2023-05-01T15:22:04.340Z,4.95
2023-05-01T15:25:09.529Z,5.28
2023-05-01T15:28:13.640Z,3.67
2023-05-01T15:31:17.870Z,4.13
2023-05-01T15:34:20.538Z,3.70
2023-05-01T15:37:23.808Z,3.80
2023-05-01T15:40:26.508Z,4.85
2023-05-01T15:43:30.906Z,4.32
2023-05-01T15:46:34.270Z,3.20
2023-05-01T15:49:36.735Z,4.95
2023-05-01T15:52:39.507Z,4.70
2023-05-01T15:55:42.332Z,3.25
2023-05-01T15:58:45.213Z,4.90
2023-05-01T16:01:47.909Z,3.80
2023-05-01T16:04:56.978Z,7.50
2023-05-01T16:08:00.656Z,3.22
2023-05-01T16:11:04.151Z,3.53
2023-05-01T16:14:10.040Z,3.95
2023-05-01T16:17:12.795Z,3.72
2023-05-01T16:20:17.271Z,4.57
2023-05-01T16:23:19.684Z,4.40
2023-05-01T16:26:24.721Z,5.18
2023-05-01T16:29:28.113Z,4.30
2023-05-01T16:32:30.907Z,3.63
2023-05-01T16:35:33.462Z,3.65
2023-05-01T16:38:36.699Z,4.15
2023-05-01T16:41:44.518Z,4.65
2023-05-01T16:44:47.144Z,3.45
2023-05-01T16:47:49.757Z,4.15
2023-05-01T16:50:52.472Z,4.55
2023-05-01T16:53:54.913Z,3.83
2023-05-01T16:56:58.375Z,3.13
2023-05-01T17:00:01.663Z,3.88
2023-05-01T17:03:04.592Z,7.20
2023-05-01T17:09:09.556Z,4.38
2023-05-01T17:15:14.778Z,3.78
2023-05-01T17:18:17.864Z,5.88
2023-05-01T17:21:20.737Z,3.95
2023-05-01T17:24:23.949Z,3.90
2023-05-01T17:27:26.806Z,5.13
2023-05-01T17:30:29.272Z,3.38
2023-05-01T17:33:31.851Z,4.60
2023-05-01T17:39:36.898Z,5.00
2023-05-01T17:45:45.770Z,3.63
2023-05-01T17:51:51.500Z,5.60
2023-05-01T17:54:53.876Z,3.45
2023-05-01T17:57:56.752Z,6.65
2023-05-01T18:00:59.396Z,4.20
2023-05-01T18:07:04.566Z,4.28
2023-05-01T18:10:08.150Z,4.18
2023-05-01T18:13:10.546Z,3.95
2023-05-01T18:16:13.358Z,4.30
2023-05-01T18:19:15.832Z,3.75
2023-05-01T18:22:18.666Z,4.50
2023-05-01T18:25:21.589Z,3.80
2023-05-01T18:28:24.204Z,5.15
2023-05-01T18:31:26.867Z,4.05
2023-05-01T18:34:29.310Z,3.78
2023-05-01T18:37:31.990Z,3.53
2023-05-01T18:43:37.044Z,6.32
2023-05-01T18:49:42.105Z,5.47
2023-05-01T18:52:44.501Z,3.65
2023-05-01T18:55:47.082Z,4.55
2023-05-01T18:58:49.793Z,3.70
2023-05-01T19:01:53.963Z,7.35
2023-05-01T19:04:58.294Z,4.45
2023-05-01T19:08:05.127Z,4.80
2023-05-01T19:11:07.561Z,5.03
2023-05-01T19:14:10.119Z,6.18
2023-05-01T19:17:12.707Z,4.43
2023-05-01T19:20:15.231Z,4.60
2023-05-01T19:23:17.604Z,5.75
2023-05-01T19:26:19.993Z,5.13
2023-05-01T19:29:22.954Z,4.88
2023-05-01T19:32:29.342Z,5.15
2023-05-01T19:35:31.895Z,4.80
2023-05-01T19:38:34.596Z,4.22
2023-05-01T19:41:37.041Z,5.32
2023-05-01T19:44:39.639Z,5.38
2023-05-01T19:47:42.703Z,10.75
2023-05-01T19:50:51.123Z,14.27
2023-05-01T19:53:53.752Z,9.10
2023-05-01T19:56:59.720Z,15.55
2023-05-01T20:00:02.567Z,34.53
2023-05-01T20:03:12.976Z,27.73
2023-05-01T20:06:15.810Z,17.90
2023-05-01T20:09:18.959Z,36.22
2023-05-01T20:12:23.028Z,54.22
2023-05-01T20:15:25.981Z,41.20
2023-05-01T20:18:28.543Z,70.20
2023-05-01T20:21:31.629Z,123.78
2023-05-01T20:24:34.089Z,133.95
2023-05-01T20:27:36.622Z,115.28
2023-05-01T20:30:43.968Z,79.38
2023-05-01T20:33:46.966Z,44.30
2023-05-01T20:36:49.973Z,34.67
2023-05-01T20:39:52.516Z,36.95
2023-05-01T20:42:55.899Z,23.38
2023-05-01T20:45:58.504Z,20.77
2023-05-01T20:49:01.411Z,25.27
2023-05-01T20:55:06.887Z,22.77
2023-05-01T20:58:09.503Z,33.97
2023-05-01T21:01:12.198Z,28.48
2023-05-01T21:04:15.154Z,23.80
2023-05-01T21:07:17.767Z,45.45
2023-05-01T21:10:20.303Z,66.45
2023-05-01T21:13:24.812Z,66.50
2023-05-01T21:16:28.955Z,46.05
2023-05-01T21:19:38.129Z,35.53
2023-05-01T21:25:43.392Z,22.08
2023-05-01T21:31:49.264Z,13.73
2023-05-01T21:34:53.633Z,8.40
2023-05-01T21:37:56.704Z,7.22
2023-05-01T21:40:59.250Z,7.38
2023-05-01T21:44:03.493Z,5.40
2023-05-01T21:47:06.121Z,5.18
2023-05-01T21:50:11.133Z,5.43
2023-05-01T21:53:14.805Z,6.00
2023-05-01T21:56:17.174Z,9.40
2023-05-01T21:59:19.770Z,5.45
2023-05-01T22:02:22.375Z,5.22
2023-05-01T22:05:25.036Z,6.38
2023-05-01T22:08:28.206Z,5.75
2023-05-01T22:11:30.736Z,4.78
2023-05-01T22:14:46.230Z,5.40
2023-05-01T22:17:49.890Z,5.63
2023-05-01T22:23:55.805Z,4.25
2023-05-01T22:26:58.242Z,5.35
2023-05-01T22:30:01.144Z,4.25
2023-05-01T22:33:04.341Z,4.30
2023-05-01T22:36:07.775Z,6.30
2023-05-01T22:39:10.794Z,7.45
2023-05-01T22:42:13.288Z,5.32
2023-05-01T22:45:16.673Z,4.53
2023-05-01T22:48:19.295Z,5.50
2023-05-01T22:51:21.878Z,4.90
2023-05-01T22:54:24.836Z,6.88
2023-05-01T22:57:27.354Z,3.75
2023-05-01T23:00:30.023Z,4.10
2023-05-01T23:03:34.576Z,5.70
2023-05-01T23:06:38.385Z,4.93
2023-05-01T23:09:41.536Z,5.95
2023-05-01T23:12:45.226Z,4.45
2023-05-01T23:15:49.862Z,5.55
2023-05-01T23:18:52.443Z,4.32
2023-05-01T23:22:11.093Z,5.15
2023-05-01T23:25:14.164Z,5.82
2023-05-01T23:28:21.229Z,3.85
2023-05-01T23:31:25.917Z,5.28
2023-05-01T23:34:28.582Z,4.72
2023-05-01T23:37:31.227Z,4.63
2023-05-01T23:40:34.740Z,4.78
2023-05-01T23:43:38.612Z,5.63
2023-05-01T23:46:41.374Z,5.25
2023-05-01T23:49:43.912Z,8.18
2023-05-01T23:52:47.111Z,5.25
2023-05-01T23:55:49.734Z,4.47
2023-05-01T23:58:52.533Z,4.65
